Nelspruit, South Africa

8:34 PM SAST on August 31, 2015 (GMT +0200)
IMPUMALA11 | | Change Station
CLOSE
Current Station
Personal Weather Station
Location: Nelspruit, MPUMALANGA
Elevation: 2552 ft
Nearby Weather Stations

Elev 2552 ft 25.49 °S, 30.99 °E | Updated 3 seconds ago

Clear
Clear
68.5 °F
Feels Like 68.5 °F
N
0.0
Wind Variable Wind from SSE
Gusts 0.0 mph

Today
High -- | Low -- °F
--% Chance of Precip.
Yesterday
High -- | Low -- °F
Precip. -- in
6:09 AM 5:43 PM
Waning Gibbous, 94% visible
Pressure 30.06 in
Visibility -9999.0 miles
Clouds
Dew Point 38 °F
Humidity 33%
Rainfall 10.17 in
Snow Depth Not available.
UV Not available.
Pollen Not available.
Air Quality Not available.
Flu Activity Not available.
METAR FAKN 311800Z 04007KT CAVOK 22/03 Q1018 NOSIG
Pressure 30.06 in
Visibility -9999.0 miles
Clouds
Dew Point 38 °F
Humidity 33%
Rainfall 10.17 in
Snow Depth Not available.
UV Not available.
Pollen Not available.
Air Quality Not available.
Flu Activity Not available.
METAR FAKN 311800Z 04007KT CAVOK 22/03 Q1018 NOSIG

10-Day Weather Forecast

×

Almanac

Astronomy

Aug. 31, 2015 Rise Set
Actual Time
Civil Twilight
Nautical Twilight
Astronomical Twilight
Moon
Length of Visible Light
Length of Day
Tomorrow will be .
, % of the Moon is Illuminated

Today's Extremes

Country Highs Country Lows

Community

WunderPhotos

Upload Photos

1,851,334 photos uploaded!

WunderBlogs® & News

Nearby

Air Quality

  Air Quality AQ Index Pollutant
Not available.

Snow Depth

Station Depth Elevation

Earthquake Activity

City Distance Mag. Time & Date
Minimum magnitude displayed is 2.5.

Coastal Water Temperatures

Place Temperature

Stations

Nearby Weather Stations

Station Location Temp. Windchill Dew Point Humidity Wind Precip. Elev Updated Type